Time;durP1;ratioP1;P1;durP2;ratioP2;P2;SDS_P1;SDS_P2;PMS_P1;PMS_P2;Temp;Humidity;BMP_temperature;BMP_pressure;BME280_temperature;BME280_humidity;BME280_pressure;Samples;Min_cycle;Max_cycle;Signal;HPM_P1;HPM_P2
2022/04/19 00:01:00;;;;;;;8.75;5.38;;;7.10;99.90;;;;;;4975438;28;20543;-41
2022/04/19 00:03:26;;;;;;;10.30;6.13;;;;;;;;;;4993185;28;20499;-41
2022/04/19 00:05:52;;;;;;;9.40;5.05;;;6.90;99.90;;;;;;4992581;28;20053;-41
2022/04/19 00:08:21;;;;;;;11.48;5.80;;;6.90;99.90;;;;;;4993255;28;20053;-42
2022/04/19 00:10:47;;;;;;;9.27;5.47;;;6.90;99.90;;;;;;4993937;28;20203;-41
2022/04/19 00:13:16;;;;;;;10.50;6.45;;;6.80;99.90;;;;;;4993608;28;20502;-40
2022/04/19 00:15:42;;;;;;;8.63;5.25;;;6.70;99.90;;;;;;4993258;28;20049;-40
2022/04/19 00:18:09;;;;;;;9.48;5.88;;;6.60;99.90;;;;;;4974664;28;20045;-41
2022/04/19 00:20:38;;;;;;;11.27;4.90;;;;;;;;;;4991510;28;20135;-40
2022/04/19 00:23:05;;;;;;;9.40;5.63;;;;;;;;;;4993173;28;20052;-41
2022/04/19 00:25:31;;;;;;;8.57;5.88;;;;;;;;;;4993629;28;20038;-40
2022/04/19 00:27:57;;;;;;;11.35;5.85;;;;;;;;;;4993121;28;20054;-40
2022/04/19 00:30:25;;;;;;;11.30;6.43;;;6.60;99.90;;;;;;4993355;28;20056;-42
2022/04/19 00:32:51;;;;;;;9.52;5.55;;;6.60;99.90;;;;;;4992776;28;20660;-41
2022/04/19 00:35:17;;;;;;;11.63;6.82;;;6.60;99.90;;;;;;4993925;28;20068;-40
2022/04/19 00:37:44;;;;;;;9.55;5.72;;;6.70;99.90;;;;;;4992976;28;20442;-40
2022/04/19 00:40:10;;;;;;;11.40;6.70;;;6.90;99.90;;;;;;4993662;28;20084;-43
2022/04/19 00:42:38;;;;;;;10.90;6.78;;;6.80;99.90;;;;;;4993896;28;21254;-41
2022/04/19 00:45:05;;;;;;;11.38;6.68;;;6.70;99.90;;;;;;4994169;28;20046;-40
2022/04/19 00:47:32;;;;;;;11.30;7.10;;;;;;;;;;4993697;28;20592;-40
2022/04/19 00:50:01;;;;;;;11.75;7.05;;;6.80;99.90;;;;;;4993294;28;20066;-40
2022/04/19 00:52:32;;;;;;;12.10;6.68;;;6.80;99.90;;;;;;4992594;28;20565;-40
2022/04/19 00:55:02;;;;;;;13.50;6.78;;;6.80;99.90;;;;;;4993597;28;20045;-41
2022/04/19 00:57:28;;;;;;;11.45;6.90;;;6.80;99.90;;;;;;4992148;28;20045;-42
2022/04/19 00:59:56;;;;;;;16.98;7.03;;;6.70;99.90;;;;;;4991632;28;20521;-40
2022/04/19 01:02:23;;;;;;;11.02;6.95;;;6.70;99.90;;;;;;4992256;28;20524;-40
2022/04/19 01:04:49;;;;;;;13.63;7.03;;;6.70;99.90;;;;;;4992969;28;20041;-42
2022/04/19 01:07:19;;;;;;;11.63;7.43;;;6.90;99.90;;;;;;4992617;28;20053;-40
2022/04/19 01:09:46;;;;;;;11.50;7.50;;;6.70;99.90;;;;;;4991883;28;20388;-40
2022/04/19 01:15:05;;;;;;;14.07;7.80;;;6.80;99.90;;;;;;4991542;28;20069;-40
2022/04/19 01:17:32;;;;;;;;;;;6.90;99.90;;;;;;4991440;28;20313;-40
2022/04/19 01:19:59;;;;;;;15.55;8.85;;;;;;;;;;4991716;28;19949;-41
2022/04/19 01:22:25;;;;;;;12.93;7.78;;;;;;;;;;4992596;28;20042;-40
2022/04/19 01:24:51;;;;;;;10.45;6.90;;;;;;;;;;4992042;28;20277;-42
2022/04/19 01:27:18;;;;;;;11.23;7.00;;;;;;;;;;4992315;28;20148;-40
2022/04/19 01:29:45;;;;;;;12.07;7.20;;;6.20;99.90;;;;;;4992095;28;20103;-40
2022/04/19 01:32:12;;;;;;;12.52;6.72;;;;;;;;;;4992270;28;20074;-40
2022/04/19 01:34:38;;;;;;;12.80;7.65;;;;;;;;;;4975809;28;20034;-40
2022/04/19 01:37:04;;;;;;;14.38;7.15;;;6.00;99.90;;;;;;4992665;28;20058;-40
2022/04/19 01:42:17;;;;;;;11.73;6.82;;;5.70;99.90;;;;;;4994031;28;20073;-41
2022/04/19 01:44:43;;;;;;;11.75;8.15;;;;;;;;;;4992427;28;20057;-41
2022/04/19 01:47:10;;;;;;;11.43;8.00;;;;;;;;;;4993106;28;20135;-41
2022/04/19 01:49:36;;;;;;;13.65;7.95;;;;;;;;;;4993764;28;20057;-41
2022/04/19 01:52:03;;;;;;;12.23;7.60;;;5.60;99.90;;;;;;4992862;28;20049;-40
2022/04/19 01:54:30;;;;;;;11.95;7.57;;;5.60;99.90;;;;;;4994466;28;20041;-41
2022/04/19 01:56:56;;;;;;;14.45;8.00;;;;;;;;;;4991684;28;20045;-41
2022/04/19 01:59:22;;;;;;;14.57;7.90;;;;;;;;;;4992321;28;20478;-41
2022/04/19 02:01:48;;;;;;;11.50;8.02;;;;;;;;;;4993650;28;20042;-40
2022/04/19 02:04:15;;;;;;;12.93;8.50;;;5.60;99.90;;;;;;4992570;28;20038;-40
2022/04/19 02:06:41;;;;;;;13.15;8.18;;;;;;;;;;4992758;28;20053;-41
2022/04/19 02:09:07;;;;;;;12.95;8.40;;;;;;;;;;4995129;28;21857;-40
2022/04/19 02:11:37;;;;;;;12.10;8.30;;;5.30;99.90;;;;;;4998552;28;20129;-39
2022/04/19 02:14:03;;;;;;;12.73;7.93;;;;;;;;;;4996498;28;20050;-41
2022/04/19 02:16:31;;;;;;;12.75;8.77;;;;;;;;;;4996181;28;20034;-40
2022/04/19 02:18:57;;;;;;;15.32;7.97;;;;;;;;;;4996072;28;20096;-41
2022/04/19 02:21:23;;;;;;;13.68;9.13;;;;;;;;;;4996392;28;20410;-41
2022/04/19 02:23:50;;;;;;;13.00;8.43;;;;;;;;;;4996629;28;20935;-40
2022/04/19 02:26:23;;;;;;;15.15;8.82;;;5.10;99.90;;;;;;4994994;28;20103;-40
2022/04/19 02:28:50;;;;;;;14.52;9.55;;;;;;;;;;4996744;28;20140;-40
2022/04/19 02:31:17;;;;;;;13.77;8.70;;;5.00;99.90;;;;;;4996226;28;20046;-40
2022/04/19 02:33:43;;;;;;;13.68;8.43;;;;;;;;;;4995478;28;20065;-40
2022/04/19 02:36:09;;;;;;;13.15;7.70;;;;;;;;;;4995031;28;21476;-40
2022/04/19 02:38:36;;;;;;;12.07;7.78;;;;;;;;;;4996330;28;20048;-40
2022/04/19 02:41:02;;;;;;;11.55;8.02;;;;;;;;;;4976627;28;20046;-40
2022/04/19 02:43:30;;;;;;;11.38;8.05;;;;;;;;;;4996338;28;20298;-39
2022/04/19 02:45:58;;;;;;;13.68;8.60;;;4.70;99.90;;;;;;4994774;28;20121;-40
2022/04/19 02:48:24;;;;;;;11.15;8.05;;;;;;;;;;4994123;28;20117;-40
2022/04/19 02:50:50;;;;;;;14.48;8.98;;;;;;;;;;4993922;28;20048;-39
2022/04/19 02:53:17;;;;;;;14.02;8.98;;;4.60;99.90;;;;;;4994891;28;20038;-41
2022/04/19 02:55:43;;;;;;;14.15;8.30;;;;;;;;;;4995518;28;20042;-39
2022/04/19 02:58:09;;;;;;;14.85;9.68;;;;;;;;;;4994325;28;20389;-41
2022/04/19 03:00:37;;;;;;;14.02;8.85;;;4.70;99.90;;;;;;4995001;28;20042;-41
2022/04/19 03:03:03;;;;;;;14.20;8.85;;;;;;;;;;4995398;28;20042;-39
2022/04/19 03:05:29;;;;;;;16.45;9.65;;;;;;;;;;4994254;28;20046;-41
2022/04/19 03:07:56;;;;;;;13.55;9.10;;;;;;;;;;4994781;28;20041;-40
2022/04/19 03:10:22;;;;;;;12.88;8.75;;;;;;;;;;4994506;28;20510;-40
2022/04/19 03:12:51;;;;;;;13.98;9.25;;;4.30;99.90;;;;;;4995569;28;20045;-39
2022/04/19 03:15:20;;;;;;;16.35;9.65;;;2.80;99.90;;;;;;4993853;28;20073;-40
2022/04/19 03:17:46;;;;;;;13.75;8.68;;;;;;;;;;4994357;28;20048;-41
2022/04/19 03:20:12;;;;;;;15.40;9.30;;;;;;;;;;4994209;28;20333;-41
2022/04/19 03:28:12;;;;;;;12.60;8.55;;;;;;;;;;4992876;28;20060;-40
2022/04/19 03:30:40;;;;;;;15.70;9.48;;;5.00;99.90;;;;;;4993878;28;20045;-39
2022/04/19 03:33:06;;;;;;;13.98;8.50;;;;;;;;;;4994808;28;20052;-40
2022/04/19 03:35:36;;;;;;;15.45;9.40;;;;;;;;;;4994397;28;20057;-40
2022/04/19 03:38:02;;;;;;;13.85;8.70;;;;;;;;;;4995276;28;20568;-41
2022/04/19 03:40:28;;;;;;;14.07;9.05;;;;;;;;;;4993977;28;20045;-41
2022/04/19 03:42:55;;;;;;;15.80;9.23;;;;;;;;;;4994391;28;20042;-43
2022/04/19 03:45:21;;;;;;;15.55;8.20;;;;;;;;;;4993742;28;20136;-40
2022/04/19 03:47:48;;;;;;;13.20;8.27;;;;;;;;;;4992477;28;20069;-40
2022/04/19 03:50:16;;;;;;;12.57;8.85;;;;;;;;;;4993184;28;20310;-40
2022/04/19 03:52:42;;;;;;;13.90;8.75;;;;;;;;;;4993626;28;20565;-40
2022/04/19 03:55:08;;;;;;;14.63;9.25;;;5.30;99.90;;;;;;4994140;28;20053;-41
2022/04/19 03:57:37;;;;;;;13.13;8.20;;;5.30;99.90;;;;;;4993756;28;20399;-41
2022/04/19 04:00:03;;;;;;;14.00;8.40;;;5.20;99.90;;;;;;4990840;28;20049;-41
2022/04/19 04:02:31;;;;;;;14.35;8.82;;;;;;;;;;4993079;28;20045;-40
2022/04/19 04:04:57;;;;;;;14.35;9.18;;;;;;;;;;4975966;28;21143;-41
2022/04/19 04:07:26;;;;;;;13.65;8.43;;;5.50;99.90;;;;;;4993995;28;21619;-41
2022/04/19 04:09:53;;;;;;;13.07;8.88;;;;;;;;;;4994135;28;20049;-49
2022/04/19 04:12:20;;;;;;;15.98;8.25;;;5.40;99.90;;;;;;4994360;28;20450;-41
2022/04/19 04:14:46;;;;;;;16.60;8.93;;;;;;;;;;4993266;28;20067;-42
2022/04/19 04:17:12;;;;;;;12.88;8.50;;;;;;;;;;4993037;28;21115;-40
2022/04/19 04:19:39;;;;;;;15.75;8.68;;;;;;;;;;4993543;28;20757;-41
2022/04/19 04:22:05;;;;;;;11.95;8.02;;;;;;;;;;4992708;28;20057;-42
2022/04/19 04:24:31;;;;;;;11.65;8.23;;;;;;;;;;4993514;28;20081;-42
2022/04/19 04:26:57;;;;;;;11.25;7.97;;;;;;;;;;4992065;28;20257;-41
2022/04/19 04:29:23;;;;;;;13.10;8.40;;;;;;;;;;4994020;28;20042;-41
2022/04/19 04:31:49;;;;;;;14.50;7.93;;;;;;;;;;4991544;28;20072;-41
2022/04/19 04:34:15;;;;;;;11.18;7.50;;;;;;;;;;4992295;28;20120;-44
2022/04/19 04:36:41;;;;;;;11.43;8.05;;;;;;;;;;4991937;28;20776;-42
2022/04/19 04:39:07;;;;;;;14.88;8.30;;;;;;;;;;4975723;28;20406;-42
2022/04/19 04:41:34;;;;;;;15.57;8.77;;;5.30;99.90;;;;;;4992605;28;20041;-43
2022/04/19 04:44:00;;;;;;;11.57;7.68;;;;;;;;;;4993489;28;20046;-42
2022/04/19 04:51:56;;;;;;;15.63;8.43;;;;;;;;;;4992942;28;20053;-43
2022/04/19 04:54:22;;;;;;;13.73;8.35;;;;;;;;;;4992182;28;20137;-44
2022/04/19 04:56:48;;;;;;;11.60;7.45;;;;;;;;;;4991911;28;20046;-44
2022/04/19 04:59:14;;;;;;;10.85;7.70;;;;;;;;;;4992777;28;20049;-43
2022/04/19 05:01:42;;;;;;;13.10;8.13;;;5.80;99.90;;;;;;4992762;28;20050;-42
2022/04/19 05:04:08;;;;;;;16.15;7.93;;;;;;;;;;4993282;28;20084;-43
2022/04/19 05:06:34;;;;;;;12.43;7.68;;;;;;;;;;4992342;28;20116;-42
2022/04/19 05:09:04;;;;;;;11.85;7.60;;;6.20;99.90;;;;;;4991432;28;20684;-41
2022/04/19 05:11:30;;;;;;;12.60;8.75;;;;;;;;;;4991077;28;20081;-41
2022/04/19 05:13:56;;;;;;;12.63;7.55;;;;;;;;;;4993116;28;20054;-41
2022/04/19 05:16:22;;;;;;;15.25;7.70;;;;;;;;;;4992545;28;20156;-42
2022/04/19 05:18:48;;;;;;;12.27;7.80;;;;;;;;;;4991626;28;20410;-42
2022/04/19 05:21:14;;;;;;;13.90;7.93;;;;;;;;;;4991808;28;20033;-41
2022/04/19 05:23:42;;;;;;;13.00;8.27;;;6.60;99.90;;;;;;4992685;28;20289;-42
2022/04/19 05:26:08;;;;;;;13.48;7.90;;;;;;;;;;4975108;28;20065;-42
2022/04/19 05:28:34;;;;;;;11.85;7.95;;;;;;;;;;4990150;28;20077;-42
2022/04/19 05:31:01;;;;;;;12.65;8.10;;;7.00;99.90;;;;;;4990778;28;20104;-44
2022/04/19 05:33:27;;;;;;;12.20;7.38;;;;;;;;;;4992954;28;20406;-41
2022/04/19 05:35:54;;;;;;;13.48;8.20;;;7.20;99.90;;;;;;4991540;28;20514;-40
2022/04/19 05:38:23;;;;;;;14.90;7.30;;;7.10;99.90;;;;;;4990658;28;20541;-41
2022/04/19 05:40:49;;;;;;;10.18;6.72;;;7.70;99.90;;;;;;4991331;28;20057;-43
2022/04/19 05:43:14;;;;;;;11.75;7.25;;;8.50;99.90;;;;;;4992947;28;20591;-42
2022/04/19 05:45:40;;;;;;;9.55;6.60;;;9.20;99.90;;;;;;4996567;28;20402;-43
2022/04/19 05:48:06;;;;;;;9.23;6.68;;;9.80;99.90;;;;;;4995331;28;20070;-42
2022/04/19 05:50:33;;;;;;;14.00;7.13;;;10.60;99.90;;;;;;4995714;28;20041;-45
2022/04/19 05:53:02;;;;;;;12.02;6.95;;;11.30;99.90;;;;;;4994950;28;20030;-42
2022/04/19 05:55:28;;;;;;;10.07;6.97;;;12.30;99.90;;;;;;4995873;28;20045;-42
2022/04/19 05:57:53;;;;;;;11.00;6.55;;;13.50;99.90;;;;;;4995047;28;20402;-44
2022/04/19 06:00:21;;;;;;;10.15;7.05;;;14.40;99.90;;;;;;4996284;28;20045;-45
2022/04/19 06:05:31;;;;;;;10.32;6.82;;;14.30;99.90;;;;;;4997423;28;20314;-45
2022/04/19 06:07:56;;;;;;;12.85;7.65;;;14.90;99.90;;;;;;4996328;28;20494;-44
2022/04/19 06:10:22;;;;;;;13.35;7.15;;;14.40;99.90;;;;;;4978384;28;20077;-44
2022/04/19 06:12:48;;;;;;;11.45;7.25;;;14.90;99.90;;;;;;4995330;28;20479;-45
2022/04/19 06:15:14;;;;;;;22.20;18.65;;;16.60;99.90;;;;;;4996898;28;20041;-43
2022/04/19 06:17:40;;;;;;;608.53;351.50;;;18.10;99.90;;;;;;4996503;28;20092;-45
2022/04/19 06:20:06;;;;;;;661.38;606.63;;;17.10;99.90;;;;;;4994067;28;20669;-45
2022/04/19 06:22:33;;;;;;;674.13;613.75;;;17.50;99.90;;;;;;4995508;28;21047;-50
2022/04/19 06:25:01;;;;;;;679.40;621.50;;;18.60;99.90;;;;;;4978432;28;20446;-47
2022/04/19 06:27:27;;;;;;;9.45;6.90;;;19.10;99.90;;;;;;4995930;28;20062;-45
2022/04/19 06:29:56;;;;;;;13.07;7.32;;;21.80;99.90;;;;;;4994477;28;20034;-48
2022/04/19 06:32:25;;;;;;;10.32;6.30;;;20.90;99.90;;;;;;4994545;28;20041;-46
2022/04/19 06:34:53;;;;;;;11.32;7.28;;;20.20;98.80;;;;;;4997278;28;21031;-47
2022/04/19 06:37:19;;;;;;;10.65;7.05;;;20.30;98.70;;;;;;4994913;28;20125;-44
2022/04/19 06:39:45;;;;;;;12.00;6.85;;;20.50;97.70;;;;;;4995240;28;20041;-46
2022/04/19 06:42:11;;;;;;;10.82;6.70;;;20.50;97.40;;;;;;4992847;28;20042;-44
2022/04/19 06:44:37;;;;;;;10.88;7.30;;;20.40;96.40;;;;;;4996495;28;20042;-46
2022/04/19 06:47:05;;;;;;;11.88;7.60;;;20.20;95.80;;;;;;4994623;28;20045;-47
2022/04/19 06:49:30;;;;;;;10.80;6.75;;;20.00;95.60;;;;;;4994408;28;20121;-45
2022/04/19 06:51:56;;;;;;;9.95;6.95;;;20.00;96.20;;;;;;4994456;28;20611;-48
2022/04/19 06:54:23;;;;;;;11.45;7.07;;;20.60;96.00;;;;;;4992804;28;20475;-44
2022/04/19 06:56:50;;;;;;;12.32;7.10;;;20.90;94.60;;;;;;4995561;28;20539;-46
2022/04/19 06:59:15;;;;;;;12.63;7.18;;;21.20;94.60;;;;;;4994017;28;20141;-48
2022/04/19 07:01:43;;;;;;;10.55;6.55;;;21.70;93.60;;;;;;4976890;28;20041;-47
2022/04/19 07:04:09;;;;;;;11.20;6.93;;;21.70;93.80;;;;;;4993909;28;20049;-48
2022/04/19 07:06:35;;;;;;;10.55;6.53;;;22.00;93.20;;;;;;4994122;28;20045;-47
2022/04/19 07:09:03;;;;;;;12.40;6.55;;;22.80;92.80;;;;;;4976437;28;20398;-47
2022/04/19 07:11:29;;;;;;;12.75;6.47;;;22.00;92.70;;;;;;4993731;28;20037;-48
2022/04/19 07:13:54;;;;;;;9.48;6.05;;;21.90;92.40;;;;;;4994637;28;20104;-49
2022/04/19 07:16:22;;;;;;;11.80;6.75;;;22.30;91.30;;;;;;4994600;28;20298;-46
2022/04/19 07:18:48;;;;;;;13.27;6.38;;;22.60;90.80;;;;;;4993777;28;20068;-47
2022/04/19 07:26:45;;;;;;;9.55;6.25;;;23.20;89.70;;;;;;4993281;28;20257;-49
2022/04/19 07:29:17;;;;;;;9.13;6.15;;;22.70;89.50;;;;;;4993669;28;20108;-48
2022/04/19 07:31:46;;;;;;;10.18;5.55;;;22.40;90.20;;;;;;4993816;28;20056;-45
2022/04/19 07:34:13;;;;;;;9.00;6.20;;;22.30;90.60;;;;;;4994173;28;20486;-47
2022/04/19 07:36:40;;;;;;;8.50;4.95;;;21.40;91.10;;;;;;4993782;28;20506;-44
2022/04/19 07:39:07;;;;;;;8.68;5.82;;;23.30;92.10;;;;;;4994241;28;20084;-46
2022/04/19 07:41:35;;;;;;;8.75;4.97;;;21.00;91.40;;;;;;4992145;28;20061;-47
2022/04/19 07:44:01;;;;;;;8.48;4.25;;;21.80;92.00;;;;;;4992969;28;20518;-48
2022/04/19 07:46:28;;;;;;;9.50;4.70;;;22.60;91.10;;;;;;4993574;28;20042;-47
2022/04/19 07:48:56;;;;;;;9.30;4.40;;;20.60;91.20;;;;;;4992554;28;20038;-47
2022/04/19 07:51:22;;;;;;;9.43;4.68;;;20.20;91.60;;;;;;4993473;28;20042;-47
2022/04/19 07:53:48;;;;;;;9.52;4.82;;;21.70;91.80;;;;;;4991980;28;20066;-45
2022/04/19 07:56:14;;;;;;;9.88;5.40;;;19.60;91.60;;;;;;4992808;28;20570;-46
2022/04/19 07:58:42;;;;;;;12.00;5.22;;;21.20;93.10;;;;;;4991599;28;20049;-45
2022/04/19 08:01:10;;;;;;;8.20;4.80;;;19.30;93.50;;;;;;4992229;28;20724;-48
2022/04/19 08:03:36;;;;;;;10.55;5.07;;;19.10;93.80;;;;;;4992940;28;20449;-47
2022/04/19 08:06:02;;;;;;;11.82;5.05;;;19.40;94.20;;;;;;4993132;28;20048;-45
2022/04/19 08:08:28;;;;;;;6.22;3.88;;;18.90;93.90;;;;;;4991213;28;20037;-47
2022/04/19 08:10:53;;;;;;;7.22;4.40;;;19.10;94.60;;;;;;4994183;28;20125;-46
2022/04/19 08:13:19;;;;;;;9.85;4.40;;;18.00;94.10;;;;;;4991929;28;20392;-45
2022/04/19 08:15:46;;;;;;;9.48;4.35;;;19.50;94.80;;;;;;4975355;28;20044;-47
2022/04/19 08:18:14;;;;;;;9.30;4.43;;;17.30;94.70;;;;;;4992221;28;20069;-44
2022/04/19 08:20:43;;;;;;;9.07;4.32;;;16.80;95.50;;;;;;4993173;28;20052;-46
2022/04/19 08:23:09;;;;;;;6.53;3.85;;;16.90;96.40;;;;;;4992956;28;20069;-46
2022/04/19 08:25:38;;;;;;;7.68;4.53;;;17.30;96.80;;;;;;4992579;28;20065;-46
2022/04/19 08:28:04;;;;;;;6.93;4.15;;;18.00;95.70;;;;;;4992162;28;20526;-47
2022/04/19 08:30:30;;;;;;;7.78;3.83;;;18.10;95.00;;;;;;4992896;28;20058;-47
2022/04/19 08:32:56;;;;;;;7.05;3.78;;;18.30;94.20;;;;;;4991638;28;20033;-44
2022/04/19 08:35:22;;;;;;;6.72;3.63;;;18.50;94.10;;;;;;4991848;28;20042;-44
2022/04/19 08:37:48;;;;;;;8.05;3.78;;;18.10;94.30;;;;;;4993345;28;20083;-44
2022/04/19 08:40:16;;;;;;;7.50;3.60;;;17.80;95.70;;;;;;4993016;28;20100;-46
2022/04/19 08:42:43;;;;;;;7.53;3.47;;;17.40;95.20;;;;;;4992661;28;20491;-43
2022/04/19 08:45:10;;;;;;;6.63;3.70;;;17.90;95.60;;;;;;4976339;28;20038;-42
2022/04/19 08:47:47;;;;;;;6.03;3.67;;;17.30;96.40;;;;;;4974030;28;20052;-43
2022/04/19 08:50:19;;;;;;;6.80;3.75;;;18.20;95.40;;;;;;4992091;28;20045;-43
2022/04/19 08:52:46;;;;;;;8.77;3.47;;;17.50;95.00;;;;;;4993268;28;20038;-44
2022/04/19 08:57:57;;;;;;;6.60;3.28;;;17.30;96.00;;;;;;4991129;28;20099;-43
2022/04/19 09:00:24;;;;;;;5.00;2.50;;;17.40;94.90;;;;;;4992370;28;20073;-47
2022/04/19 09:02:58;;;;;;;5.68;2.97;;;17.40;94.60;;;;;;4991572;28;20048;-46
2022/04/19 09:05:28;;;;;;;6.50;3.30;;;19.50;95.60;;;;;;4993830;28;20069;-48
2022/04/19 09:07:57;;;;;;;6.18;3.03;;;17.20;95.30;;;;;;4991775;28;20038;-44
2022/04/19 09:10:27;;;;;;;5.43;2.97;;;17.90;94.90;;;;;;4992989;28;20045;-44
2022/04/19 09:13:00;;;;;;;7.00;2.72;;;18.00;95.40;;;;;;4990912;28;20038;-45
2022/04/19 09:15:45;;;;;;;7.28;2.75;;;16.80;94.30;;;;;;4992502;28;20042;-47
2022/04/19 09:18:33;;;;;;;10.35;2.80;;;17.10;94.40;;;;;;4990802;28;20127;-46
2022/04/19 09:21:01;;;;;;;7.80;2.45;;;19.00;94.80;;;;;;4994965;28;20045;-45
2022/04/19 09:23:31;;;;;;;5.25;1.70;;;19.40;93.50;;;;;;4995313;28;20277;-49
2022/04/19 09:26:00;;;;;;;6.82;1.50;;;19.10;91.00;;;;;;4993905;28;20042;-46
2022/04/19 09:28:27;;;;;;;3.13;1.40;;;19.50;90.20;;;;;;4992406;28;21211;-45
2022/04/19 09:30:57;;;;;;;2.45;1.05;;;19.40;89.20;;;;;;4995477;28;20278;-44
2022/04/19 09:33:30;;;;;;;3.53;1.02;;;19.00;89.70;;;;;;4992849;28;20030;-45
2022/04/19 09:36:02;;;;;;;2.92;1.48;;;18.50;88.60;;;;;;4994595;28;20038;-46
2022/04/19 09:38:47;;;;;;;2.28;1.13;;;18.00;86.30;;;;;;4994825;28;20052;-43
2022/04/19 09:41:32;;;;;;;4.60;1.10;;;17.40;90.00;;;;;;4995318;28;20034;-46
2022/04/19 09:44:08;;;;;;;3.33;1.13;;;18.90;90.70;;;;;;4994639;28;20042;-48
2022/04/19 09:46:36;;;;;;;3.85;1.20;;;16.70;90.50;;;;;;4996337;28;20117;-45
2022/04/19 09:49:02;;;;;;;2.90;1.30;;;17.10;91.70;;;;;;4994208;28;20399;-44
2022/04/19 09:51:32;;;;;;;5.70;1.70;;;17.00;91.30;;;;;;4993813;28;20044;-44
2022/04/19 09:53:58;;;;;;;7.00;1.27;;;17.00;91.90;;;;;;4992707;28;20041;-47
2022/04/19 09:56:33;;;;;;;2.92;1.27;;;16.80;91.40;;;;;;4994070;28;20037;-47
2022/04/19 09:59:01;;;;;;;3.05;1.27;;;16.90;92.10;;;;;;4991737;28;20571;-45
2022/04/19 10:09:31;;;;;;;3.40;1.50;;;17.70;93.10;;;;;;4993277;28;20324;-48
2022/04/19 10:11:57;;;;;;;3.28;1.50;;;17.00;92.60;;;;;;4994785;28;20042;-45
2022/04/19 10:14:23;;;;;;;3.13;1.40;;;17.40;92.60;;;;;;4993839;28;20703;-47
2022/04/19 10:16:52;;;;;;;3.22;1.48;;;17.50;92.40;;;;;;4994359;28;20042;-46
2022/04/19 10:19:19;;;;;;;4.18;1.40;;;17.30;91.70;;;;;;4993174;28;20261;-44
2022/04/19 10:21:47;;;;;;;3.25;1.50;;;18.70;92.70;;;;;;4994091;28;20042;-45
2022/04/19 10:24:17;;;;;;;5.43;1.52;;;17.40;93.20;;;;;;4994407;28;20061;-45
2022/04/19 10:29:30;;;;;;;5.72;1.95;;;17.50;92.60;;;;;;5142547;27;20770;-45
2022/04/19 10:32:06;;;;;;;3.95;1.40;;;17.30;91.80;;;;;;5110129;28;20835;-41
2022/04/19 10:34:35;;;;;;;3.90;1.52;;;17.10;92.30;;;;;;5109564;28;20043;-46
2022/04/19 10:37:23;;;;;;;6.53;1.83;;;18.10;93.60;;;;;;5108464;28;20047;-46
2022/04/19 10:40:05;;;;;;;3.67;1.65;;;18.50;91.80;;;;;;5108132;28;20032;-45
2022/04/19 10:42:32;;;;;;;3.13;1.50;;;18.10;93.10;;;;;;5108884;28;20462;-46
2022/04/19 10:45:33;;;;;;;3.63;1.70;;;17.50;93.30;;;;;;5110776;28;20036;-46
2022/04/19 10:48:03;;;;;;;7.78;1.92;;;17.70;92.20;;;;;;5067362;28;20118;-47
2022/04/19 10:50:44;;;;;;;4.28;1.55;;;17.70;92.60;;;;;;5066060;28;20055;-49
2022/04/19 10:53:11;;;;;;;5.55;1.92;;;17.70;92.90;;;;;;5065881;28;20635;-48
2022/04/19 10:56:05;;;;;;;5.03;1.90;;;17.60;93.20;;;;;;5065442;28;20412;-44
2022/04/19 10:58:41;;;;;;;2.78;1.60;;;17.80;93.70;;;;;;5066215;28;20047;-44
2022/04/19 11:01:31;;;;;;;3.38;1.80;;;17.90;93.20;;;;;;5051952;28;20829;-47
2022/04/19 11:03:57;;;;;;;3.40;1.40;;;18.00;92.70;;;;;;5067004;28;20082;-49
2022/04/19 11:06:40;;;;;;;6.60;1.85;;;20.20;93.80;;;;;;5065755;28;20042;-43
2022/04/19 11:09:15;;;;;;;9.60;2.10;;;17.70;92.00;;;;;;5064980;28;20812;-49
2022/04/19 11:12:08;;;;;;;7.35;1.92;;;18.00;93.70;;;;;;5065853;28;20040;-45
2022/04/19 11:14:41;;;;;;;4.30;2.10;;;17.80;92.60;;;;;;5062974;28;20571;-44
2022/04/19 11:17:27;;;;;;;7.35;1.92;;;18.70;94.50;;;;;;5067074;28;20134;-47
2022/04/19 11:19:57;;;;;;;4.28;2.00;;;17.80;94.10;;;;;;5066475;28;20048;-48
2022/04/19 11:22:41;;;;;;;3.50;1.75;;;17.80;93.00;;;;;;5094461;28;20059;-44
2022/04/19 11:25:07;;;;;;;5.15;1.98;;;17.90;94.10;;;;;;5109181;28;20039;-47
2022/04/19 11:28:14;;;;;;;6.32;1.60;;;18.10;94.50;;;;;;5104959;28;20071;-47
2022/04/19 11:30:50;;;;;;;6.75;2.65;;;18.10;91.90;;;;;;5066540;28;20052;-47
2022/04/19 11:33:26;;;;;;;4.18;1.80;;;18.10;92.30;;;;;;5065817;28;20220;-44
2022/04/19 11:36:02;;;;;;;5.70;2.22;;;17.80;93.70;;;;;;5066236;28;20052;-47
2022/04/19 11:38:39;;;;;;;3.28;1.80;;;18.70;94.20;;;;;;5065810;28;20172;-48
2022/04/19 11:46:46;;;;;;;7.60;2.25;;;19.00;93.50;;;;;;5052981;28;20147;-47
2022/04/19 11:49:27;;;;;;;4.88;2.40;;;17.90;93.40;;;;;;5052461;28;20207;-47
2022/04/19 11:51:58;;;;;;;7.15;2.15;;;17.70;93.10;;;;;;5052561;28;20064;-47
2022/04/19 11:54:27;;;;;;;4.95;2.10;;;15.40;94.00;;;;;;5034622;28;20253;-46
2022/04/19 11:56:59;;;;;;;4.07;1.60;;;17.70;93.00;;;;;;5051626;28;20421;-45
2022/04/19 11:59:28;;;;;;;4.50;1.70;;;17.60;92.40;;;;;;5052218;28;20044;-45
2022/04/19 12:01:54;;;;;;;4.47;1.60;;;18.00;93.30;;;;;;5050916;28;20115;-45
2022/04/19 12:04:21;;;;;;;5.55;2.10;;;18.50;93.70;;;;;;5052909;28;20124;-45
2022/04/19 12:06:58;;;;;;;3.38;1.35;;;17.40;93.30;;;;;;5056470;28;20044;-46
2022/04/19 12:09:24;;;;;;;4.60;1.52;;;17.60;93.20;;;;;;5095134;28;20130;-46
2022/04/19 12:11:50;;;;;;;4.28;1.60;;;19.50;93.40;;;;;;5093680;28;20035;-46
2022/04/19 12:14:30;;;;;;;7.47;1.98;;;19.00;93.90;;;;;;5094951;28;20074;-46
2022/04/19 12:17:01;;;;;;;4.22;1.70;;;17.60;93.70;;;;;;5096001;28;20164;-48
2022/04/19 12:19:33;;;;;;;3.95;1.83;;;17.50;92.90;;;;;;5094185;28;20126;-47
2022/04/19 12:21:59;;;;;;;6.63;1.88;;;19.60;93.50;;;;;;5093185;28;20063;-49
2022/04/19 12:24:25;;;;;;;4.00;1.80;;;17.40;93.30;;;;;;5094776;28;20031;-49
2022/04/19 12:27:03;;;;;;;4.10;2.13;;;17.90;94.60;;;;;;5094095;28;20055;-48
2022/04/19 12:29:29;;;;;;;6.90;1.92;;;20.00;94.30;;;;;;5094291;28;20523;-47
2022/04/19 12:32:00;;;;;;;6.55;2.10;;;17.90;94.20;;;;;;5093936;28;20081;-47
2022/04/19 12:34:34;;;;;;;3.83;2.10;;;17.80;94.80;;;;;;5094699;28;21012;-46
2022/04/19 12:37:19;;;;;;;5.45;1.95;;;17.80;93.80;;;;;;5094676;28;20063;-49
2022/04/19 12:39:59;;;;;;;3.72;2.08;;;20.10;95.20;;;;;;5095255;28;20119;-48
2022/04/19 12:42:25;;;;;;;3.10;1.55;;;17.90;94.00;;;;;;5091561;28;20084;-48
2022/04/19 12:45:06;;;;;;;3.28;1.83;;;17.70;93.30;;;;;;5095441;28;20040;-47
2022/04/19 12:47:32;;;;;;;3.90;1.65;;;17.70;93.20;;;;;;5095138;28;20039;-44
2022/04/19 12:50:08;;;;;;;3.40;1.60;;;20.00;94.00;;;;;;5093909;28;20458;-52
2022/04/19 12:52:34;;;;;;;5.55;1.75;;;17.60;93.70;;;;;;5092810;28;20027;-48
2022/04/19 12:55:00;;;;;;;3.95;1.98;;;19.60;94.90;;;;;;5093836;28;20047;-46
2022/04/19 12:57:26;;;;;;;3.97;1.67;;;17.70;93.90;;;;;;5094354;28;20039;-45
2022/04/19 12:59:52;;;;;;;3.83;1.98;;;19.60;93.70;;;;;;5093495;28;20048;-48
2022/04/19 13:02:19;;;;;;;4.25;1.63;;;17.40;93.90;;;;;;5094891;28;20035;-47
2022/04/19 13:04:49;;;;;;;4.38;1.50;;;17.70;94.10;;;;;;5093172;28;20047;-47
2022/04/19 13:12:50;;;;;;;4.60;2.05;;;17.80;93.30;;;;;;5094439;28;20051;-46
2022/04/19 13:15:16;;;;;;;5.68;2.00;;;17.40;94.50;;;;;;5094477;28;20055;-48
2022/04/19 13:17:43;;;;;;;5.05;1.88;;;17.70;93.70;;;;;;5093571;28;20032;-46
2022/04/19 13:20:10;;;;;;;3.83;1.70;;;17.70;94.60;;;;;;5093961;28;20039;-45
2022/04/19 13:22:36;;;;;;;6.30;2.30;;;18.90;94.10;;;;;;5092593;28;20035;-45
2022/04/19 13:25:07;;;;;;;4.22;2.05;;;17.90;94.00;;;;;;5094837;28;20063;-47
2022/04/19 13:27:36;;;;;;;5.82;2.22;;;17.30;94.30;;;;;;5093575;28;20132;-42
2022/04/19 13:30:07;;;;;;;6.03;2.65;;;17.40;95.00;;;;;;5094753;28;20705;-46
2022/04/19 13:32:33;;;;;;;8.00;2.10;;;17.70;93.70;;;;;;5094261;28;20214;-47
2022/04/19 13:34:59;;;;;;;4.78;2.00;;;17.60;94.50;;;;;;5094617;28;20043;-47
2022/04/19 13:40:09;;;;;;;7.32;2.10;;;18.30;95.10;;;;;;5095394;28;20050;-43
2022/04/19 13:42:35;;;;;;;4.28;1.70;;;17.60;94.30;;;;;;5093532;28;20040;-44
2022/04/19 13:45:01;;;;;;;4.40;2.20;;;19.00;93.90;;;;;;5094248;28;20552;-48
2022/04/19 13:47:27;;;;;;;4.45;2.22;;;17.50;94.00;;;;;;5095205;28;20777;-46
2022/04/19 13:49:55;;;;;;;5.05;2.60;;;17.40;94.20;;;;;;5093412;28;20080;-46
2022/04/19 13:52:20;;;;;;;4.53;2.20;;;17.40;94.20;;;;;;5091296;28;20687;-44
2022/04/19 13:54:46;;;;;;;6.63;2.05;;;17.50;94.80;;;;;;5093215;28;20046;-45
2022/04/19 13:57:12;;;;;;;4.28;2.03;;;17.30;93.50;;;;;;5093630;28;20055;-47
2022/04/19 13:59:37;;;;;;;6.20;2.65;;;17.40;92.90;;;;;;5093240;28;20513;-48
2022/04/19 14:02:04;;;;;;;3.70;1.63;;;19.10;94.40;;;;;;5092888;28;20047;-47
2022/04/19 14:04:31;;;;;;;3.97;2.20;;;17.50;93.70;;;;;;5092126;28;20043;-48
2022/04/19 14:06:58;;;;;;;5.50;2.33;;;17.30;95.00;;;;;;5093571;28;20431;-45
2022/04/19 14:09:23;;;;;;;4.85;2.38;;;17.30;93.80;;;;;;5093678;28;20051;-43